sensor_id;sensor_type;location;lat;lon;timestamp;P1;durP1;ratioP1;P2;durP2;ratioP2
72920;SDS011;61064;51.654;5.476;2023-01-08T00:01:17;6.57;;;1.90;;
72920;SDS011;61064;51.654;5.476;2023-01-08T00:03:43;6.80;;;1.70;;
72920;SDS011;61064;51.654;5.476;2023-01-08T00:06:16;7.72;;;2.00;;
72920;SDS011;61064;51.654;5.476;2023-01-08T00:08:43;5.88;;;1.80;;
72920;SDS011;61064;51.654;5.476;2023-01-08T00:11:09;6.23;;;1.80;;
72920;SDS011;61064;51.654;5.476;2023-01-08T00:13:35;7.57;;;1.80;;
72920;SDS011;61064;51.654;5.476;2023-01-08T00:16:06;7.17;;;1.90;;
72920;SDS011;61064;51.654;5.476;2023-01-08T00:18:33;5.70;;;1.60;;
72920;SDS011;61064;51.654;5.476;2023-01-08T00:20:59;9.02;;;2.00;;
72920;SDS011;61064;51.654;5.476;2023-01-08T00:23:25;6.65;;;1.58;;
72920;SDS011;61064;51.654;5.476;2023-01-08T00:25:51;6.07;;;1.70;;
72920;SDS011;61064;51.654;5.476;2023-01-08T00:28:16;5.83;;;1.53;;
72920;SDS011;61064;51.654;5.476;2023-01-08T00:30:42;6.30;;;1.70;;
72920;SDS011;61064;51.654;5.476;2023-01-08T00:33:08;6.63;;;2.00;;
72920;SDS011;61064;51.654;5.476;2023-01-08T00:35:33;9.50;;;1.88;;
72920;SDS011;61064;51.654;5.476;2023-01-08T00:38:00;8.32;;;1.77;;
72920;SDS011;61064;51.654;5.476;2023-01-08T00:40:25;6.10;;;1.63;;
72920;SDS011;61064;51.654;5.476;2023-01-08T00:42:50;8.30;;;1.90;;
72920;SDS011;61064;51.654;5.476;2023-01-08T00:45:16;9.27;;;2.20;;
72920;SDS011;61064;51.654;5.476;2023-01-08T00:47:41;7.30;;;1.77;;
72920;SDS011;61064;51.654;5.476;2023-01-08T00:50:07;6.93;;;1.65;;
72920;SDS011;61064;51.654;5.476;2023-01-08T00:52:32;7.50;;;1.80;;
72920;SDS011;61064;51.654;5.476;2023-01-08T00:54:58;7.70;;;2.03;;
72920;SDS011;61064;51.654;5.476;2023-01-08T00:57:23;7.90;;;1.70;;
72920;SDS011;61064;51.654;5.476;2023-01-08T00:59:51;7.50;;;2.07;;
72920;SDS011;61064;51.654;5.476;2023-01-08T01:02:16;8.48;;;1.73;;
72920;SDS011;61064;51.654;5.476;2023-01-08T01:04:42;6.90;;;1.80;;
72920;SDS011;61064;51.654;5.476;2023-01-08T01:07:07;6.90;;;1.50;;
72920;SDS011;61064;51.654;5.476;2023-01-08T01:09:35;7.55;;;2.10;;
72920;SDS011;61064;51.654;5.476;2023-01-08T01:12:01;8.88;;;2.00;;
72920;SDS011;61064;51.654;5.476;2023-01-08T01:14:27;6.60;;;2.10;;
72920;SDS011;61064;51.654;5.476;2023-01-08T01:16:52;6.10;;;1.70;;
72920;SDS011;61064;51.654;5.476;2023-01-08T01:19:18;7.97;;;1.90;;
72920;SDS011;61064;51.654;5.476;2023-01-08T01:21:43;7.30;;;1.83;;
72920;SDS011;61064;51.654;5.476;2023-01-08T01:24:09;8.07;;;2.03;;
72920;SDS011;61064;51.654;5.476;2023-01-08T01:26:37;7.45;;;1.98;;
72920;SDS011;61064;51.654;5.476;2023-01-08T01:29:02;6.27;;;1.90;;
72920;SDS011;61064;51.654;5.476;2023-01-08T01:31:29;7.18;;;2.00;;
72920;SDS011;61064;51.654;5.476;2023-01-08T01:33:55;6.13;;;1.70;;
72920;SDS011;61064;51.654;5.476;2023-01-08T01:36:21;7.57;;;1.80;;
72920;SDS011;61064;51.654;5.476;2023-01-08T01:38:48;7.30;;;2.10;;
72920;SDS011;61064;51.654;5.476;2023-01-08T01:41:28;10.95;;;2.25;;
72920;SDS011;61064;51.654;5.476;2023-01-08T01:46:57;6.87;;;1.80;;
72920;SDS011;61064;51.654;5.476;2023-01-08T01:49:24;8.57;;;2.05;;
72920;SDS011;61064;51.654;5.476;2023-01-08T01:51:51;7.00;;;2.00;;
72920;SDS011;61064;51.654;5.476;2023-01-08T01:54:19;9.10;;;2.00;;
72920;SDS011;61064;51.654;5.476;2023-01-08T01:56:48;6.95;;;1.88;;
72920;SDS011;61064;51.654;5.476;2023-01-08T01:59:14;6.13;;;1.80;;
72920;SDS011;61064;51.654;5.476;2023-01-08T02:01:40;8.70;;;2.75;;
72920;SDS011;61064;51.654;5.476;2023-01-08T02:04:10;5.53;;;1.80;;
72920;SDS011;61064;51.654;5.476;2023-01-08T02:06:41;7.15;;;2.10;;
72920;SDS011;61064;51.654;5.476;2023-01-08T02:09:16;6.35;;;1.80;;
72920;SDS011;61064;51.654;5.476;2023-01-08T02:11:55;7.85;;;2.10;;
72920;SDS011;61064;51.654;5.476;2023-01-08T02:27:53;5.93;;;0.80;;
72920;SDS011;61064;51.654;5.476;2023-01-08T02:30:20;6.13;;;0.70;;
72920;SDS011;61064;51.654;5.476;2023-01-08T02:32:46;3.97;;;0.60;;
72920;SDS011;61064;51.654;5.476;2023-01-08T02:35:11;5.33;;;0.60;;
72920;SDS011;61064;51.654;5.476;2023-01-08T02:37:37;5.43;;;0.50;;
72920;SDS011;61064;51.654;5.476;2023-01-08T02:42:58;4.05;;;0.45;;
72920;SDS011;61064;51.654;5.476;2023-01-08T02:48:38;7.37;;;0.60;;
72920;SDS011;61064;51.654;5.476;2023-01-08T02:51:21;4.07;;;0.32;;
72920;SDS011;61064;51.654;5.476;2023-01-08T02:53:53;3.22;;;0.30;;
72920;SDS011;61064;51.654;5.476;2023-01-08T02:56:26;4.78;;;0.40;;
72920;SDS011;61064;51.654;5.476;2023-01-08T02:59:01;4.68;;;0.50;;
72920;SDS011;61064;51.654;5.476;2023-01-08T03:01:29;4.33;;;0.33;;
72920;SDS011;61064;51.654;5.476;2023-01-08T03:03:58;6.00;;;0.60;;
72920;SDS011;61064;51.654;5.476;2023-01-08T03:06:32;4.80;;;0.50;;
72920;SDS011;61064;51.654;5.476;2023-01-08T03:08:57;4.45;;;0.40;;
72920;SDS011;61064;51.654;5.476;2023-01-08T03:11:24;5.47;;;0.40;;
72920;SDS011;61064;51.654;5.476;2023-01-08T03:13:59;4.47;;;0.40;;
72920;SDS011;61064;51.654;5.476;2023-01-08T03:16:28;4.18;;;0.50;;
72920;SDS011;61064;51.654;5.476;2023-01-08T03:19:18;6.43;;;0.50;;
72920;SDS011;61064;51.654;5.476;2023-01-08T03:21:52;5.20;;;0.40;;
72920;SDS011;61064;51.654;5.476;2023-01-08T03:24:19;4.57;;;0.30;;
72920;SDS011;61064;51.654;5.476;2023-01-08T03:26:47;4.25;;;0.40;;
72920;SDS011;61064;51.654;5.476;2023-01-08T03:29:17;4.57;;;0.60;;
72920;SDS011;61064;51.654;5.476;2023-01-08T03:31:45;5.63;;;0.40;;
72920;SDS011;61064;51.654;5.476;2023-01-08T03:34:12;7.38;;;0.50;;
72920;SDS011;61064;51.654;5.476;2023-01-08T03:36:40;4.88;;;0.50;;
72920;SDS011;61064;51.654;5.476;2023-01-08T03:39:15;6.57;;;0.40;;
72920;SDS011;61064;51.654;5.476;2023-01-08T03:41:48;5.18;;;0.50;;
72920;SDS011;61064;51.654;5.476;2023-01-08T03:44:14;5.27;;;0.43;;
72920;SDS011;61064;51.654;5.476;2023-01-08T03:46:41;4.95;;;0.50;;
72920;SDS011;61064;51.654;5.476;2023-01-08T03:49:13;8.30;;;0.60;;
72920;SDS011;61064;51.654;5.476;2023-01-08T03:51:40;5.63;;;0.40;;
72920;SDS011;61064;51.654;5.476;2023-01-08T03:54:07;4.67;;;0.50;;
72920;SDS011;61064;51.654;5.476;2023-01-08T03:56:42;6.13;;;0.80;;
72920;SDS011;61064;51.654;5.476;2023-01-08T03:59:09;5.55;;;0.63;;
72920;SDS011;61064;51.654;5.476;2023-01-08T04:01:35;4.68;;;0.35;;
72920;SDS011;61064;51.654;5.476;2023-01-08T04:04:01;6.43;;;0.40;;
72920;SDS011;61064;51.654;5.476;2023-01-08T04:06:26;5.10;;;0.50;;
72920;SDS011;61064;51.654;5.476;2023-01-08T04:08:51;5.20;;;0.40;;
72920;SDS011;61064;51.654;5.476;2023-01-08T04:11:17;3.63;;;0.57;;
72920;SDS011;61064;51.654;5.476;2023-01-08T04:13:42;6.47;;;0.53;;
72920;SDS011;61064;51.654;5.476;2023-01-08T04:16:08;4.23;;;0.50;;
72920;SDS011;61064;51.654;5.476;2023-01-08T04:18:33;9.57;;;0.50;;
72920;SDS011;61064;51.654;5.476;2023-01-08T04:20:59;5.83;;;0.40;;
72920;SDS011;61064;51.654;5.476;2023-01-08T04:23:25;5.47;;;0.70;;
72920;SDS011;61064;51.654;5.476;2023-01-08T04:25:51;6.30;;;0.70;;
72920;SDS011;61064;51.654;5.476;2023-01-08T04:28:17;6.25;;;0.93;;
72920;SDS011;61064;51.654;5.476;2023-01-08T04:30:42;3.77;;;0.40;;
72920;SDS011;61064;51.654;5.476;2023-01-08T04:33:08;5.65;;;0.68;;
72920;SDS011;61064;51.654;5.476;2023-01-08T04:35:34;6.20;;;0.70;;
72920;SDS011;61064;51.654;5.476;2023-01-08T04:37:59;5.30;;;0.50;;
72920;SDS011;61064;51.654;5.476;2023-01-08T04:40:25;9.32;;;0.80;;
72920;SDS011;61064;51.654;5.476;2023-01-08T04:42:50;7.97;;;0.87;;
72920;SDS011;61064;51.654;5.476;2023-01-08T04:45:16;3.47;;;0.47;;
72920;SDS011;61064;51.654;5.476;2023-01-08T04:47:41;5.65;;;0.60;;
72920;SDS011;61064;51.654;5.476;2023-01-08T04:50:07;5.93;;;0.67;;
72920;SDS011;61064;51.654;5.476;2023-01-08T04:52:32;4.30;;;0.60;;
72920;SDS011;61064;51.654;5.476;2023-01-08T04:54:58;6.47;;;0.80;;
72920;SDS011;61064;51.654;5.476;2023-01-08T04:57:23;4.83;;;0.70;;
72920;SDS011;61064;51.654;5.476;2023-01-08T04:59:49;6.97;;;0.80;;
72920;SDS011;61064;51.654;5.476;2023-01-08T05:02:14;4.60;;;0.70;;
72920;SDS011;61064;51.654;5.476;2023-01-08T05:04:40;4.40;;;0.60;;
72920;SDS011;61064;51.654;5.476;2023-01-08T05:07:05;4.70;;;0.70;;
72920;SDS011;61064;51.654;5.476;2023-01-08T05:09:31;7.50;;;1.10;;
72920;SDS011;61064;51.654;5.476;2023-01-08T05:11:57;5.83;;;0.60;;
72920;SDS011;61064;51.654;5.476;2023-01-08T05:14:23;6.07;;;0.75;;
72920;SDS011;61064;51.654;5.476;2023-01-08T05:16:48;4.10;;;0.60;;
72920;SDS011;61064;51.654;5.476;2023-01-08T05:19:14;5.67;;;0.73;;
72920;SDS011;61064;51.654;5.476;2023-01-08T05:21:39;5.23;;;0.60;;
72920;SDS011;61064;51.654;5.476;2023-01-08T05:24:05;4.43;;;0.60;;
72920;SDS011;61064;51.654;5.476;2023-01-08T05:26:30;3.43;;;0.50;;
72920;SDS011;61064;51.654;5.476;2023-01-08T05:28:56;5.03;;;0.60;;
72920;SDS011;61064;51.654;5.476;2023-01-08T05:31:22;6.22;;;0.75;;
72920;SDS011;61064;51.654;5.476;2023-01-08T05:33:47;5.83;;;0.80;;
72920;SDS011;61064;51.654;5.476;2023-01-08T05:36:13;4.90;;;0.60;;
72920;SDS011;61064;51.654;5.476;2023-01-08T05:38:39;7.73;;;0.70;;
72920;SDS011;61064;51.654;5.476;2023-01-08T05:41:05;5.88;;;0.60;;
72920;SDS011;61064;51.654;5.476;2023-01-08T05:43:31;4.03;;;0.50;;
72920;SDS011;61064;51.654;5.476;2023-01-08T05:45:57;4.03;;;0.50;;
72920;SDS011;61064;51.654;5.476;2023-01-08T05:48:26;7.13;;;0.60;;
72920;SDS011;61064;51.654;5.476;2023-01-08T05:50:52;4.75;;;0.40;;
72920;SDS011;61064;51.654;5.476;2023-01-08T05:53:18;2.93;;;0.30;;
72920;SDS011;61064;51.654;5.476;2023-01-08T05:55:43;4.13;;;0.60;;
72920;SDS011;61064;51.654;5.476;2023-01-08T05:58:09;4.77;;;0.50;;
72920;SDS011;61064;51.654;5.476;2023-01-08T06:00:36;6.60;;;0.50;;
72920;SDS011;61064;51.654;5.476;2023-01-08T06:03:02;4.75;;;0.57;;
72920;SDS011;61064;51.654;5.476;2023-01-08T06:05:29;2.70;;;0.30;;
72920;SDS011;61064;51.654;5.476;2023-01-08T06:07:56;3.25;;;0.40;;
72920;SDS011;61064;51.654;5.476;2023-01-08T06:10:22;7.40;;;0.82;;
72920;SDS011;61064;51.654;5.476;2023-01-08T06:12:47;6.37;;;0.60;;
72920;SDS011;61064;51.654;5.476;2023-01-08T06:15:13;3.43;;;0.40;;
72920;SDS011;61064;51.654;5.476;2023-01-08T06:17:38;4.17;;;0.50;;
72920;SDS011;61064;51.654;5.476;2023-01-08T06:20:04;4.68;;;0.47;;
72920;SDS011;61064;51.654;5.476;2023-01-08T06:22:30;6.77;;;0.40;;
72920;SDS011;61064;51.654;5.476;2023-01-08T06:24:55;7.00;;;0.52;;
72920;SDS011;61064;51.654;5.476;2023-01-08T06:27:21;7.97;;;0.90;;
72920;SDS011;61064;51.654;5.476;2023-01-08T06:29:46;5.30;;;0.70;;
72920;SDS011;61064;51.654;5.476;2023-01-08T06:32:12;4.47;;;0.50;;
72920;SDS011;61064;51.654;5.476;2023-01-08T06:34:37;4.37;;;0.57;;
72920;SDS011;61064;51.654;5.476;2023-01-08T06:37:03;6.47;;;0.77;;
72920;SDS011;61064;51.654;5.476;2023-01-08T06:39:28;7.25;;;0.52;;
72920;SDS011;61064;51.654;5.476;2023-01-08T06:41:53;7.77;;;0.70;;
72920;SDS011;61064;51.654;5.476;2023-01-08T06:44:19;5.13;;;0.40;;
72920;SDS011;61064;51.654;5.476;2023-01-08T06:46:45;7.57;;;0.63;;
72920;SDS011;61064;51.654;5.476;2023-01-08T06:49:10;8.23;;;0.70;;
72920;SDS011;61064;51.654;5.476;2023-01-08T06:51:36;7.60;;;1.20;;
72920;SDS011;61064;51.654;5.476;2023-01-08T06:54:01;5.07;;;0.60;;
72920;SDS011;61064;51.654;5.476;2023-01-08T06:56:27;9.85;;;0.70;;
72920;SDS011;61064;51.654;5.476;2023-01-08T06:58:52;9.33;;;0.80;;
72920;SDS011;61064;51.654;5.476;2023-01-08T07:01:18;4.70;;;0.50;;
72920;SDS011;61064;51.654;5.476;2023-01-08T07:03:44;6.70;;;0.60;;
72920;SDS011;61064;51.654;5.476;2023-01-08T07:06:18;5.07;;;0.73;;
72920;SDS011;61064;51.654;5.476;2023-01-08T07:08:45;7.38;;;0.80;;
72920;SDS011;61064;51.654;5.476;2023-01-08T07:11:11;5.65;;;0.65;;
72920;SDS011;61064;51.654;5.476;2023-01-08T07:13:39;9.15;;;0.77;;
72920;SDS011;61064;51.654;5.476;2023-01-08T07:16:09;6.83;;;0.70;;
72920;SDS011;61064;51.654;5.476;2023-01-08T07:18:36;4.65;;;0.50;;
72920;SDS011;61064;51.654;5.476;2023-01-08T07:21:02;4.68;;;0.50;;
72920;SDS011;61064;51.654;5.476;2023-01-08T07:23:28;7.03;;;0.60;;
72920;SDS011;61064;51.654;5.476;2023-01-08T07:25:53;7.27;;;0.63;;
72920;SDS011;61064;51.654;5.476;2023-01-08T07:28:18;7.37;;;0.73;;
72920;SDS011;61064;51.654;5.476;2023-01-08T07:30:44;5.10;;;0.80;;
72920;SDS011;61064;51.654;5.476;2023-01-08T07:33:09;5.65;;;0.70;;
72920;SDS011;61064;51.654;5.476;2023-01-08T07:35:35;7.07;;;1.20;;
72920;SDS011;61064;51.654;5.476;2023-01-08T07:38:02;4.55;;;0.68;;
72920;SDS011;61064;51.654;5.476;2023-01-08T07:40:27;6.43;;;0.60;;
72920;SDS011;61064;51.654;5.476;2023-01-08T07:42:59;6.73;;;0.97;;
72920;SDS011;61064;51.654;5.476;2023-01-08T07:45:26;6.63;;;0.70;;
72920;SDS011;61064;51.654;5.476;2023-01-08T07:47:53;5.88;;;1.02;;
72920;SDS011;61064;51.654;5.476;2023-01-08T07:50:20;8.40;;;1.17;;
72920;SDS011;61064;51.654;5.476;2023-01-08T07:52:45;10.57;;;1.10;;
72920;SDS011;61064;51.654;5.476;2023-01-08T07:55:10;9.83;;;0.80;;
72920;SDS011;61064;51.654;5.476;2023-01-08T07:57:36;9.27;;;0.90;;
72920;SDS011;61064;51.654;5.476;2023-01-08T08:00:01;9.80;;;1.20;;
72920;SDS011;61064;51.654;5.476;2023-01-08T08:02:27;7.53;;;0.95;;
72920;SDS011;61064;51.654;5.476;2023-01-08T08:04:52;7.03;;;0.70;;
72920;SDS011;61064;51.654;5.476;2023-01-08T08:07:18;7.53;;;0.80;;
72920;SDS011;61064;51.654;5.476;2023-01-08T08:09:43;9.53;;;0.80;;
72920;SDS011;61064;51.654;5.476;2023-01-08T08:12:08;11.17;;;0.90;;
72920;SDS011;61064;51.654;5.476;2023-01-08T08:14:34;9.87;;;0.90;;
72920;SDS011;61064;51.654;5.476;2023-01-08T08:16:59;8.83;;;0.80;;
72920;SDS011;61064;51.654;5.476;2023-01-08T08:19:25;10.02;;;0.77;;
72920;SDS011;61064;51.654;5.476;2023-01-08T08:21:50;9.67;;;0.83;;
72920;SDS011;61064;51.654;5.476;2023-01-08T08:24:16;11.37;;;1.10;;
72920;SDS011;61064;51.654;5.476;2023-01-08T08:26:41;5.70;;;0.68;;
72920;SDS011;61064;51.654;5.476;2023-01-08T08:29:06;9.43;;;0.83;;
72920;SDS011;61064;51.654;5.476;2023-01-08T08:31:32;10.20;;;0.87;;
72920;SDS011;61064;51.654;5.476;2023-01-08T08:33:57;7.93;;;0.87;;
72920;SDS011;61064;51.654;5.476;2023-01-08T08:36:28;8.53;;;0.80;;
72920;SDS011;61064;51.654;5.476;2023-01-08T08:38:54;7.75;;;0.90;;
72920;SDS011;61064;51.654;5.476;2023-01-08T08:41:20;11.00;;;0.70;;
72920;SDS011;61064;51.654;5.476;2023-01-08T08:43:45;7.93;;;1.10;;
72920;SDS011;61064;51.654;5.476;2023-01-08T08:46:11;8.23;;;1.00;;
72920;SDS011;61064;51.654;5.476;2023-01-08T08:48:36;7.43;;;0.77;;
72920;SDS011;61064;51.654;5.476;2023-01-08T08:51:02;9.13;;;0.73;;
72920;SDS011;61064;51.654;5.476;2023-01-08T08:53:28;9.02;;;0.90;;
72920;SDS011;61064;51.654;5.476;2023-01-08T08:55:53;11.00;;;0.73;;
72920;SDS011;61064;51.654;5.476;2023-01-08T08:58:18;7.07;;;0.80;;
72920;SDS011;61064;51.654;5.476;2023-01-08T09:00:44;8.70;;;0.80;;
72920;SDS011;61064;51.654;5.476;2023-01-08T09:03:13;6.23;;;1.03;;
72920;SDS011;61064;51.654;5.476;2023-01-08T09:05:39;5.75;;;0.65;;
72920;SDS011;61064;51.654;5.476;2023-01-08T09:08:05;7.65;;;0.90;;
72920;SDS011;61064;51.654;5.476;2023-01-08T09:10:31;6.43;;;0.70;;
72920;SDS011;61064;51.654;5.476;2023-01-08T09:12:56;12.03;;;1.20;;
72920;SDS011;61064;51.654;5.476;2023-01-08T09:15:21;8.47;;;0.90;;
72920;SDS011;61064;51.654;5.476;2023-01-08T09:17:53;9.25;;;1.13;;
72920;SDS011;61064;51.654;5.476;2023-01-08T09:20:20;8.10;;;1.53;;
72920;SDS011;61064;51.654;5.476;2023-01-08T09:22:45;7.70;;;1.00;;
72920;SDS011;61064;51.654;5.476;2023-01-08T09:25:11;10.03;;;1.30;;
72920;SDS011;61064;51.654;5.476;2023-01-08T09:27:36;10.20;;;1.23;;
72920;SDS011;61064;51.654;5.476;2023-01-08T09:30:02;13.82;;;1.58;;
72920;SDS011;61064;51.654;5.476;2023-01-08T09:32:28;8.93;;;0.90;;
72920;SDS011;61064;51.654;5.476;2023-01-08T09:34:53;7.13;;;0.60;;
72920;SDS011;61064;51.654;5.476;2023-01-08T09:37:19;8.20;;;0.73;;
72920;SDS011;61064;51.654;5.476;2023-01-08T09:39:44;9.70;;;1.37;;
72920;SDS011;61064;51.654;5.476;2023-01-08T09:42:10;6.28;;;1.02;;
72920;SDS011;61064;51.654;5.476;2023-01-08T09:44:38;7.97;;;1.00;;
72920;SDS011;61064;51.654;5.476;2023-01-08T09:47:08;8.18;;;1.00;;
72920;SDS011;61064;51.654;5.476;2023-01-08T09:49:54;7.70;;;0.85;;
72920;SDS011;61064;51.654;5.476;2023-01-08T09:52:23;9.55;;;0.70;;
72920;SDS011;61064;51.654;5.476;2023-01-08T09:54:49;6.83;;;0.80;;
72920;SDS011;61064;51.654;5.476;2023-01-08T09:57:15;4.53;;;0.70;;
72920;SDS011;61064;51.654;5.476;2023-01-08T09:59:43;7.70;;;0.90;;
72920;SDS011;61064;51.654;5.476;2023-01-08T10:02:15;9.20;;;1.13;;
72920;SDS011;61064;51.654;5.476;2023-01-08T10:04:43;10.45;;;1.00;;
72920;SDS011;61064;51.654;5.476;2023-01-08T10:07:19;9.43;;;1.00;;
72920;SDS011;61064;51.654;5.476;2023-01-08T10:09:50;12.13;;;1.10;;
72920;SDS011;61064;51.654;5.476;2023-01-08T10:15:15;9.05;;;1.20;;
72920;SDS011;61064;51.654;5.476;2023-01-08T10:20:23;9.07;;;0.90;;
72920;SDS011;61064;51.654;5.476;2023-01-08T10:22:50;13.30;;;0.98;;
72920;SDS011;61064;51.654;5.476;2023-01-08T10:25:27;8.00;;;0.90;;
72920;SDS011;61064;51.654;5.476;2023-01-08T10:27:57;12.25;;;1.50;;
72920;SDS011;61064;51.654;5.476;2023-01-08T10:32:56;7.83;;;0.97;;
72920;SDS011;61064;51.654;5.476;2023-01-08T10:35:33;7.55;;;0.70;;
72920;SDS011;61064;51.654;5.476;2023-01-08T10:38:01;6.50;;;0.95;;
72920;SDS011;61064;51.654;5.476;2023-01-08T10:40:36;5.35;;;0.80;;
72920;SDS011;61064;51.654;5.476;2023-01-08T10:43:13;8.48;;;1.20;;
72920;SDS011;61064;51.654;5.476;2023-01-08T10:45:41;6.17;;;0.73;;
72920;SDS011;61064;51.654;5.476;2023-01-08T10:48:14;7.60;;;0.80;;
72920;SDS011;61064;51.654;5.476;2023-01-08T10:50:42;6.78;;;0.80;;
72920;SDS011;61064;51.654;5.476;2023-01-08T10:53:22;4.78;;;0.50;;
72920;SDS011;61064;51.654;5.476;2023-01-08T10:56:03;6.75;;;0.73;;
72920;SDS011;61064;51.654;5.476;2023-01-08T10:58:29;6.50;;;0.70;;
72920;SDS011;61064;51.654;5.476;2023-01-08T11:01:11;5.10;;;0.55;;
72920;SDS011;61064;51.654;5.476;2023-01-08T11:03:39;4.93;;;0.60;;
72920;SDS011;61064;51.654;5.476;2023-01-08T11:06:09;3.42;;;0.45;;
72920;SDS011;61064;51.654;5.476;2023-01-08T11:08:36;4.78;;;0.50;;
72920;SDS011;61064;51.654;5.476;2023-01-08T11:11:02;6.30;;;0.80;;
72920;SDS011;61064;51.654;5.476;2023-01-08T11:13:29;6.57;;;0.90;;
72920;SDS011;61064;51.654;5.476;2023-01-08T11:15:58;4.80;;;0.50;;
72920;SDS011;61064;51.654;5.476;2023-01-08T11:18:53;3.97;;;0.50;;
72920;SDS011;61064;51.654;5.476;2023-01-08T11:21:19;5.70;;;0.60;;
72920;SDS011;61064;51.654;5.476;2023-01-08T11:26:27;4.00;;;0.40;;
72920;SDS011;61064;51.654;5.476;2023-01-08T11:29:02;3.17;;;0.40;;
72920;SDS011;61064;51.654;5.476;2023-01-08T11:35:45;2.45;;;0.30;;
72920;SDS011;61064;51.654;5.476;2023-01-08T11:37:58;2.28;;;0.30;;
72920;SDS011;61064;51.654;5.476;2023-01-08T11:43:04;3.00;;;0.30;;
72920;SDS011;61064;51.654;5.476;2023-01-08T11:46:00;2.33;;;0.20;;
72920;SDS011;61064;51.654;5.476;2023-01-08T11:57:25;3.00;;;0.30;;
72920;SDS011;61064;51.654;5.476;2023-01-08T12:33:06;5.75;;;0.65;;
72920;SDS011;61064;51.654;5.476;2023-01-08T12:35:45;3.90;;;0.40;;
72920;SDS011;61064;51.654;5.476;2023-01-08T12:40:46;5.43;;;0.60;;
72920;SDS011;61064;51.654;5.476;2023-01-08T12:43:20;5.90;;;0.68;;
72920;SDS011;61064;51.654;5.476;2023-01-08T12:45:51;4.40;;;0.40;;
72920;SDS011;61064;51.654;5.476;2023-01-08T12:48:24;4.35;;;0.40;;
72920;SDS011;61064;51.654;5.476;2023-01-08T12:50:58;6.20;;;0.68;;
72920;SDS011;61064;51.654;5.476;2023-01-08T12:53:30;6.13;;;0.50;;
72920;SDS011;61064;51.654;5.476;2023-01-08T12:56:15;4.65;;;0.50;;
72920;SDS011;61064;51.654;5.476;2023-01-08T13:04:22;4.47;;;0.50;;
72920;SDS011;61064;51.654;5.476;2023-01-08T13:06:52;5.63;;;0.40;;
72920;SDS011;61064;51.654;5.476;2023-01-08T13:09:26;5.00;;;0.43;;
72920;SDS011;61064;51.654;5.476;2023-01-08T13:11:53;6.40;;;0.50;;
72920;SDS011;61064;51.654;5.476;2023-01-08T13:14:21;4.60;;;0.50;;
72920;SDS011;61064;51.654;5.476;2023-01-08T13:16:47;4.18;;;0.57;;
72920;SDS011;61064;51.654;5.476;2023-01-08T13:19:27;6.27;;;0.77;;
72920;SDS011;61064;51.654;5.476;2023-01-08T13:21:56;5.63;;;0.50;;
72920;SDS011;61064;51.654;5.476;2023-01-08T13:24:25;7.22;;;0.60;;
72920;SDS011;61064;51.654;5.476;2023-01-08T13:29:42;3.67;;;0.47;;
72920;SDS011;61064;51.654;5.476;2023-01-08T13:32:22;6.30;;;0.90;;
72920;SDS011;61064;51.654;5.476;2023-01-08T13:37:40;5.75;;;0.70;;
72920;SDS011;61064;51.654;5.476;2023-01-08T13:43:12;7.43;;;0.95;;
72920;SDS011;61064;51.654;5.476;2023-01-08T13:45:41;7.43;;;0.60;;
72920;SDS011;61064;51.654;5.476;2023-01-08T13:48:36;4.45;;;0.50;;
72920;SDS011;61064;51.654;5.476;2023-01-08T13:51:04;6.03;;;0.50;;
72920;SDS011;61064;51.654;5.476;2023-01-08T13:53:30;5.38;;;0.60;;
72920;SDS011;61064;51.654;5.476;2023-01-08T13:55:57;5.43;;;0.50;;
72920;SDS011;61064;51.654;5.476;2023-01-08T13:58:25;4.60;;;0.47;;
72920;SDS011;61064;51.654;5.476;2023-01-08T14:00:54;4.72;;;0.50;;
72920;SDS011;61064;51.654;5.476;2023-01-08T14:03:22;4.72;;;0.60;;
72920;SDS011;61064;51.654;5.476;2023-01-08T14:05:50;5.78;;;0.60;;
72920;SDS011;61064;51.654;5.476;2023-01-08T14:08:22;5.47;;;0.60;;
72920;SDS011;61064;51.654;5.476;2023-01-08T14:10:49;5.85;;;0.70;;
72920;SDS011;61064;51.654;5.476;2023-01-08T14:13:16;4.97;;;0.47;;
72920;SDS011;61064;51.654;5.476;2023-01-08T14:15:43;5.00;;;0.40;;
72920;SDS011;61064;51.654;5.476;2023-01-08T14:18:10;8.02;;;0.50;;
72920;SDS011;61064;51.654;5.476;2023-01-08T14:20:38;3.83;;;0.45;;
72920;SDS011;61064;51.654;5.476;2023-01-08T14:23:12;6.00;;;0.83;;
72920;SDS011;61064;51.654;5.476;2023-01-08T14:25:48;7.43;;;0.60;;
72920;SDS011;61064;51.654;5.476;2023-01-08T14:28:15;6.05;;;0.50;;
72920;SDS011;61064;51.654;5.476;2023-01-08T14:30:53;4.28;;;0.50;;
72920;SDS011;61064;51.654;5.476;2023-01-08T14:33:21;5.45;;;0.70;;
72920;SDS011;61064;51.654;5.476;2023-01-08T14:35:48;4.97;;;0.60;;
72920;SDS011;61064;51.654;5.476;2023-01-08T14:38:15;5.85;;;0.50;;
72920;SDS011;61064;51.654;5.476;2023-01-08T14:40:41;7.85;;;0.50;;
72920;SDS011;61064;51.654;5.476;2023-01-08T14:43:13;4.65;;;0.45;;
72920;SDS011;61064;51.654;5.476;2023-01-08T14:45:44;4.10;;;0.40;;
72920;SDS011;61064;51.654;5.476;2023-01-08T14:48:16;7.75;;;0.75;;
72920;SDS011;61064;51.654;5.476;2023-01-08T14:53:53;7.68;;;0.60;;
72920;SDS011;61064;51.654;5.476;2023-01-08T14:56:30;3.55;;;0.45;;
72920;SDS011;61064;51.654;5.476;2023-01-08T14:58:57;6.53;;;0.50;;
72920;SDS011;61064;51.654;5.476;2023-01-08T15:01:25;6.05;;;0.45;;
72920;SDS011;61064;51.654;5.476;2023-01-08T15:04:03;5.70;;;0.60;;
72920;SDS011;61064;51.654;5.476;2023-01-08T15:06:38;4.93;;;0.50;;
72920;SDS011;61064;51.654;5.476;2023-01-08T15:09:14;5.87;;;0.70;;
72920;SDS011;61064;51.654;5.476;2023-01-08T15:11:47;4.72;;;0.40;;
72920;SDS011;61064;51.654;5.476;2023-01-08T15:14:25;7.25;;;0.60;;
72920;SDS011;61064;51.654;5.476;2023-01-08T15:17:15;6.43;;;0.60;;
72920;SDS011;61064;51.654;5.476;2023-01-08T15:19:45;6.40;;;0.50;;
72920;SDS011;61064;51.654;5.476;2023-01-08T15:22:18;6.80;;;0.85;;
72920;SDS011;61064;51.654;5.476;2023-01-08T15:24:54;5.47;;;0.60;;
72920;SDS011;61064;51.654;5.476;2023-01-08T15:27:27;6.57;;;0.50;;
72920;SDS011;61064;51.654;5.476;2023-01-08T15:29:55;7.10;;;0.80;;
72920;SDS011;61064;51.654;5.476;2023-01-08T15:32:26;5.87;;;0.80;;
72920;SDS011;61064;51.654;5.476;2023-01-08T15:34:58;8.00;;;0.60;;
72920;SDS011;61064;51.654;5.476;2023-01-08T15:37:24;7.93;;;0.63;;
72920;SDS011;61064;51.654;5.476;2023-01-08T15:39:49;8.70;;;0.83;;
72920;SDS011;61064;51.654;5.476;2023-01-08T15:42:27;6.80;;;0.70;;
72920;SDS011;61064;51.654;5.476;2023-01-08T15:45:14;5.38;;;0.70;;
72920;SDS011;61064;51.654;5.476;2023-01-08T15:47:47;9.45;;;1.05;;
72920;SDS011;61064;51.654;5.476;2023-01-08T15:50:12;5.13;;;0.60;;
72920;SDS011;61064;51.654;5.476;2023-01-08T15:52:39;7.38;;;0.70;;
72920;SDS011;61064;51.654;5.476;2023-01-08T15:55:08;7.80;;;0.77;;
72920;SDS011;61064;51.654;5.476;2023-01-08T15:57:39;4.80;;;0.70;;
72920;SDS011;61064;51.654;5.476;2023-01-08T16:00:06;5.50;;;0.77;;
72920;SDS011;61064;51.654;5.476;2023-01-08T16:02:43;5.22;;;0.80;;
72920;SDS011;61064;51.654;5.476;2023-01-08T16:05:09;7.63;;;0.90;;
72920;SDS011;61064;51.654;5.476;2023-01-08T16:07:35;6.80;;;0.60;;
72920;SDS011;61064;51.654;5.476;2023-01-08T16:10:01;9.70;;;1.10;;
72920;SDS011;61064;51.654;5.476;2023-01-08T16:12:26;7.43;;;0.70;;
72920;SDS011;61064;51.654;5.476;2023-01-08T16:14:52;7.43;;;0.80;;
72920;SDS011;61064;51.654;5.476;2023-01-08T16:17:17;5.53;;;0.50;;
72920;SDS011;61064;51.654;5.476;2023-01-08T16:19:42;4.70;;;0.83;;
72920;SDS011;61064;51.654;5.476;2023-01-08T16:22:08;7.32;;;1.15;;
72920;SDS011;61064;51.654;5.476;2023-01-08T16:24:33;6.50;;;0.90;;
72920;SDS011;61064;51.654;5.476;2023-01-08T16:26:58;6.60;;;0.97;;
72920;SDS011;61064;51.654;5.476;2023-01-08T16:29:24;6.63;;;0.80;;
72920;SDS011;61064;51.654;5.476;2023-01-08T16:31:51;6.80;;;0.70;;
72920;SDS011;61064;51.654;5.476;2023-01-08T16:34:18;5.60;;;0.80;;
72920;SDS011;61064;51.654;5.476;2023-01-08T16:36:44;8.07;;;1.10;;